Terminal Aerodrome Forecast
Issued by NWS

Current Version | Previous Version | Text Only | Print | Product List | Glossary Off
Versions: 1 2 3 4 5 6 7 8 9 10 11 12 13 14 15 16 17 18 19 20 21

000
FTUS41 KRLX 300100 AAA
TAFCKB
TAF AMD
KCKB 300116Z 3001/3024 19005KT P6SM BKN150
     FM300500 20012G24KT P6SM -SHRA OVC080
     FM300700 21009KT P6SM -SHRA OVC035
     FM300900 22009KT P6SM OVC035
     FM301700 26011KT P6SM SCT035
     FM302000 26012G18KT P6SM SKC=

USA.gov is the U.S. government's official web portal to all federal, state and local government web resources and services.